sensor_id;sensor_type;location;lat;lon;timestamp;temperature;humidity
52024;DHT22;38038;45.922;13.604;2022-09-03T00:01:09;18.70;99.10
52024;DHT22;38038;45.922;13.604;2022-09-03T00:03:50;18.80;99.50
52024;DHT22;38038;45.922;13.604;2022-09-03T00:06:35;18.80;99.10
52024;DHT22;38038;45.922;13.604;2022-09-03T00:09:11;18.70;99.10
52024;DHT22;38038;45.922;13.604;2022-09-03T00:14:20;18.70;98.40
52024;DHT22;38038;45.922;13.604;2022-09-03T00:16:55;18.70;98.70
52024;DHT22;38038;45.922;13.604;2022-09-03T00:19:30;18.80;98.70
52024;DHT22;38038;45.922;13.604;2022-09-03T00:22:02;18.70;98.80
52024;DHT22;38038;45.922;13.604;2022-09-03T00:24:33;18.70;98.50
52024;DHT22;38038;45.922;13.604;2022-09-03T00:27:04;18.70;98.90
52024;DHT22;38038;45.922;13.604;2022-09-03T00:29:51;18.70;98.90
52024;DHT22;38038;45.922;13.604;2022-09-03T00:32:24;18.70;98.80
52024;DHT22;38038;45.922;13.604;2022-09-03T00:34:56;18.70;99.00
52024;DHT22;38038;45.922;13.604;2022-09-03T00:37:26;18.30;99.90
52024;DHT22;38038;45.922;13.604;2022-09-03T00:39:55;18.20;99.90
52024;DHT22;38038;45.922;13.604;2022-09-03T00:47:48;17.90;99.90
52024;DHT22;38038;45.922;13.604;2022-09-03T00:50:35;17.90;99.90
52024;DHT22;38038;45.922;13.604;2022-09-03T01:01:35;17.90;99.90
52024;DHT22;38038;45.922;13.604;2022-09-03T01:04:20;17.90;99.90
52024;DHT22;38038;45.922;13.604;2022-09-03T01:07:08;17.90;99.90
52024;DHT22;38038;45.922;13.604;2022-09-03T01:17:15;18.00;99.90
52024;DHT22;38038;45.922;13.604;2022-09-03T01:34:04;18.30;99.90
52024;DHT22;38038;45.922;13.604;2022-09-03T01:44:58;18.30;99.90
52024;DHT22;38038;45.922;13.604;2022-09-03T01:47:56;18.40;99.90
52024;DHT22;38038;45.922;13.604;2022-09-03T01:50:52;18.40;99.90
52024;DHT22;38038;45.922;13.604;2022-09-03T02:04:21;18.50;99.70
52024;DHT22;38038;45.922;13.604;2022-09-03T02:06:48;18.50;99.60
52024;DHT22;38038;45.922;13.604;2022-09-03T02:09:15;18.50;99.60
52024;DHT22;38038;45.922;13.604;2022-09-03T02:11:43;18.40;99.80
52024;DHT22;38038;45.922;13.604;2022-09-03T02:14:11;18.40;99.80
52024;DHT22;38038;45.922;13.604;2022-09-03T02:16:38;18.30;99.90
52024;DHT22;38038;45.922;13.604;2022-09-03T02:19:07;18.30;99.80
52024;DHT22;38038;45.922;13.604;2022-09-03T02:21:38;18.40;99.70
52024;DHT22;38038;45.922;13.604;2022-09-03T02:24:07;18.40;99.80
52024;DHT22;38038;45.922;13.604;2022-09-03T02:26:33;18.30;99.90
52024;DHT22;38038;45.922;13.604;2022-09-03T02:29:00;18.40;99.90
52024;DHT22;38038;45.922;13.604;2022-09-03T02:31:26;18.30;99.90
52024;DHT22;38038;45.922;13.604;2022-09-03T02:33:54;18.30;99.90
52024;DHT22;38038;45.922;13.604;2022-09-03T02:36:25;18.20;99.90
52024;DHT22;38038;45.922;13.604;2022-09-03T02:38:52;18.00;99.90
52024;DHT22;38038;45.922;13.604;2022-09-03T02:41:18;18.10;99.90
52024;DHT22;38038;45.922;13.604;2022-09-03T02:44:09;18.10;99.90
52024;DHT22;38038;45.922;13.604;2022-09-03T02:46:42;18.00;99.90
52024;DHT22;38038;45.922;13.604;2022-09-03T02:49:09;18.00;99.90
52024;DHT22;38038;45.922;13.604;2022-09-03T02:51:38;18.00;99.90
52024;DHT22;38038;45.922;13.604;2022-09-03T02:54:04;17.90;99.90
52024;DHT22;38038;45.922;13.604;2022-09-03T02:56:30;17.80;99.90
52024;DHT22;38038;45.922;13.604;2022-09-03T02:58:56;17.80;99.90
52024;DHT22;38038;45.922;13.604;2022-09-03T03:01:22;17.80;99.90
52024;DHT22;38038;45.922;13.604;2022-09-03T03:03:48;17.70;99.90
52024;DHT22;38038;45.922;13.604;2022-09-03T03:06:14;17.80;99.90
52024;DHT22;38038;45.922;13.604;2022-09-03T03:08:40;17.80;99.90
52024;DHT22;38038;45.922;13.604;2022-09-03T03:11:06;17.80;99.90
52024;DHT22;38038;45.922;13.604;2022-09-03T03:13:32;17.70;99.90
52024;DHT22;38038;45.922;13.604;2022-09-03T03:16:00;17.70;99.90
52024;DHT22;38038;45.922;13.604;2022-09-03T03:18:26;17.70;99.90
52024;DHT22;38038;45.922;13.604;2022-09-03T03:20:52;17.60;99.90
52024;DHT22;38038;45.922;13.604;2022-09-03T03:23:19;17.40;99.90
52024;DHT22;38038;45.922;13.604;2022-09-03T03:25:45;17.40;99.90
52024;DHT22;38038;45.922;13.604;2022-09-03T03:28:11;17.20;99.90
52024;DHT22;38038;45.922;13.604;2022-09-03T03:30:38;17.10;99.90
52024;DHT22;38038;45.922;13.604;2022-09-03T03:33:08;17.10;99.90
52024;DHT22;38038;45.922;13.604;2022-09-03T03:35:35;17.10;99.90
52024;DHT22;38038;45.922;13.604;2022-09-03T03:38:01;17.30;99.90
52024;DHT22;38038;45.922;13.604;2022-09-03T03:40:27;17.40;99.90
52024;DHT22;38038;45.922;13.604;2022-09-03T03:42:53;17.40;99.90
52024;DHT22;38038;45.922;13.604;2022-09-03T03:45:19;17.50;99.90
52024;DHT22;38038;45.922;13.604;2022-09-03T03:47:45;17.50;99.90
52024;DHT22;38038;45.922;13.604;2022-09-03T03:50:11;17.50;99.90
52024;DHT22;38038;45.922;13.604;2022-09-03T03:52:36;17.50;99.90
52024;DHT22;38038;45.922;13.604;2022-09-03T03:55:02;17.50;99.90
52024;DHT22;38038;45.922;13.604;2022-09-03T03:57:29;17.30;99.90
52024;DHT22;38038;45.922;13.604;2022-09-03T03:59:56;17.00;99.90
52024;DHT22;38038;45.922;13.604;2022-09-03T04:02:22;17.00;99.90
52024;DHT22;38038;45.922;13.604;2022-09-03T04:04:47;16.80;99.90
52024;DHT22;38038;45.922;13.604;2022-09-03T04:07:13;16.60;99.90
52024;DHT22;38038;45.922;13.604;2022-09-03T04:09:39;16.40;99.90
52024;DHT22;38038;45.922;13.604;2022-09-03T04:12:05;16.30;99.90
52024;DHT22;38038;45.922;13.604;2022-09-03T04:14:33;16.20;99.90
52024;DHT22;38038;45.922;13.604;2022-09-03T04:17:00;16.20;99.90
52024;DHT22;38038;45.922;13.604;2022-09-03T04:19:26;16.20;99.90
52024;DHT22;38038;45.922;13.604;2022-09-03T04:21:53;16.20;99.90
52024;DHT22;38038;45.922;13.604;2022-09-03T04:24:19;16.10;99.90
52024;DHT22;38038;45.922;13.604;2022-09-03T04:26:45;16.00;99.90
52024;DHT22;38038;45.922;13.604;2022-09-03T04:29:11;16.00;99.90
52024;DHT22;38038;45.922;13.604;2022-09-03T04:31:37;16.00;99.90
52024;DHT22;38038;45.922;13.604;2022-09-03T04:34:04;16.10;99.90
52024;DHT22;38038;45.922;13.604;2022-09-03T04:36:31;16.20;99.90
52024;DHT22;38038;45.922;13.604;2022-09-03T04:38:58;16.30;99.90
52024;DHT22;38038;45.922;13.604;2022-09-03T04:41:26;16.30;99.90
52024;DHT22;38038;45.922;13.604;2022-09-03T04:43:53;16.40;99.90
52024;DHT22;38038;45.922;13.604;2022-09-03T04:46:21;16.50;99.90
52024;DHT22;38038;45.922;13.604;2022-09-03T04:48:49;16.50;99.90
52024;DHT22;38038;45.922;13.604;2022-09-03T04:51:26;16.60;99.90
52024;DHT22;38038;45.922;13.604;2022-09-03T04:53:55;16.70;99.90
52024;DHT22;38038;45.922;13.604;2022-09-03T04:56:24;16.70;99.90
52024;DHT22;38038;45.922;13.604;2022-09-03T04:59:01;16.90;99.90
52024;DHT22;38038;45.922;13.604;2022-09-03T05:01:29;17.00;99.90
52024;DHT22;38038;45.922;13.604;2022-09-03T05:03:56;17.10;99.90
52024;DHT22;38038;45.922;13.604;2022-09-03T05:06:23;17.10;99.90
52024;DHT22;38038;45.922;13.604;2022-09-03T05:08:51;17.00;99.90
52024;DHT22;38038;45.922;13.604;2022-09-03T05:11:17;17.00;99.90
52024;DHT22;38038;45.922;13.604;2022-09-03T05:13:47;17.00;99.90
52024;DHT22;38038;45.922;13.604;2022-09-03T05:16:14;16.80;99.90
52024;DHT22;38038;45.922;13.604;2022-09-03T05:18:39;16.70;99.90
52024;DHT22;38038;45.922;13.604;2022-09-03T05:21:12;16.80;99.90
52024;DHT22;38038;45.922;13.604;2022-09-03T05:23:40;16.70;99.90
52024;DHT22;38038;45.922;13.604;2022-09-03T05:26:09;16.80;99.90
52024;DHT22;38038;45.922;13.604;2022-09-03T05:28:36;16.80;99.90
52024;DHT22;38038;45.922;13.604;2022-09-03T05:31:07;16.70;99.90
52024;DHT22;38038;45.922;13.604;2022-09-03T05:33:34;16.60;99.90
52024;DHT22;38038;45.922;13.604;2022-09-03T05:36:05;16.70;99.90
52024;DHT22;38038;45.922;13.604;2022-09-03T05:38:31;16.60;99.90
52024;DHT22;38038;45.922;13.604;2022-09-03T05:41:01;16.60;99.90
52024;DHT22;38038;45.922;13.604;2022-09-03T05:43:28;16.40;99.90
52024;DHT22;38038;45.922;13.604;2022-09-03T05:45:58;16.40;99.90
52024;DHT22;38038;45.922;13.604;2022-09-03T05:48:29;16.40;99.90
52024;DHT22;38038;45.922;13.604;2022-09-03T05:53:26;16.60;99.90
52024;DHT22;38038;45.922;13.604;2022-09-03T05:55:59;16.70;99.90
52024;DHT22;38038;45.922;13.604;2022-09-03T05:58:30;16.90;99.90
52024;DHT22;38038;45.922;13.604;2022-09-03T06:00:56;17.00;99.90
52024;DHT22;38038;45.922;13.604;2022-09-03T06:03:21;17.10;99.90
52024;DHT22;38038;45.922;13.604;2022-09-03T06:05:51;17.30;99.90
52024;DHT22;38038;45.922;13.604;2022-09-03T06:08:17;17.50;99.90
52024;DHT22;38038;45.922;13.604;2022-09-03T06:10:43;17.70;99.90
52024;DHT22;38038;45.922;13.604;2022-09-03T06:13:09;17.80;99.90
52024;DHT22;38038;45.922;13.604;2022-09-03T06:15:35;17.90;99.90
52024;DHT22;38038;45.922;13.604;2022-09-03T06:18:01;18.10;99.90
52024;DHT22;38038;45.922;13.604;2022-09-03T06:20:26;18.30;99.90
52024;DHT22;38038;45.922;13.604;2022-09-03T06:22:53;18.40;99.90
52024;DHT22;38038;45.922;13.604;2022-09-03T06:25:20;18.50;99.90
52024;DHT22;38038;45.922;13.604;2022-09-03T06:27:45;18.70;99.90
52024;DHT22;38038;45.922;13.604;2022-09-03T06:30:12;18.80;99.90
52024;DHT22;38038;45.922;13.604;2022-09-03T06:32:45;19.00;99.90
52024;DHT22;38038;45.922;13.604;2022-09-03T06:35:11;19.10;99.90
52024;DHT22;38038;45.922;13.604;2022-09-03T06:37:40;19.20;99.90
52024;DHT22;38038;45.922;13.604;2022-09-03T06:40:07;19.30;99.90
52024;DHT22;38038;45.922;13.604;2022-09-03T06:42:39;19.50;99.90
52024;DHT22;38038;45.922;13.604;2022-09-03T06:45:09;19.60;99.90
52024;DHT22;38038;45.922;13.604;2022-09-03T06:47:35;19.80;99.90
52024;DHT22;38038;45.922;13.604;2022-09-03T06:50:01;19.90;99.90
52024;DHT22;38038;45.922;13.604;2022-09-03T06:52:30;20.10;98.70
52024;DHT22;38038;45.922;13.604;2022-09-03T06:54:55;20.20;99.10
52024;DHT22;38038;45.922;13.604;2022-09-03T06:57:21;20.30;98.80
52024;DHT22;38038;45.922;13.604;2022-09-03T06:59:47;20.40;98.80
52024;DHT22;38038;45.922;13.604;2022-09-03T07:02:13;20.50;98.40
52024;DHT22;38038;45.922;13.604;2022-09-03T07:04:39;20.50;98.00
52024;DHT22;38038;45.922;13.604;2022-09-03T07:07:05;20.60;98.00
52024;DHT22;38038;45.922;13.604;2022-09-03T07:09:37;20.70;97.80
52024;DHT22;38038;45.922;13.604;2022-09-03T07:12:03;20.90;97.00
52024;DHT22;38038;45.922;13.604;2022-09-03T07:14:29;20.90;96.60
52024;DHT22;38038;45.922;13.604;2022-09-03T07:16:54;21.00;97.00
52024;DHT22;38038;45.922;13.604;2022-09-03T07:19:20;21.00;96.40
52024;DHT22;38038;45.922;13.604;2022-09-03T07:21:46;21.10;96.70
52024;DHT22;38038;45.922;13.604;2022-09-03T07:24:11;21.20;96.50
52024;DHT22;38038;45.922;13.604;2022-09-03T07:26:40;21.10;96.20
52024;DHT22;38038;45.922;13.604;2022-09-03T07:29:08;21.30;96.90
52024;DHT22;38038;45.922;13.604;2022-09-03T07:31:40;21.30;96.60
52024;DHT22;38038;45.922;13.604;2022-09-03T07:34:08;21.40;96.40
52024;DHT22;38038;45.922;13.604;2022-09-03T07:36:44;21.50;95.90
52024;DHT22;38038;45.922;13.604;2022-09-03T07:39:16;21.60;95.80
52024;DHT22;38038;45.922;13.604;2022-09-03T07:41:43;21.80;95.40
52024;DHT22;38038;45.922;13.604;2022-09-03T07:44:11;21.70;94.80
52024;DHT22;38038;45.922;13.604;2022-09-03T07:46:37;21.80;95.50
52024;DHT22;38038;45.922;13.604;2022-09-03T07:49:05;21.90;95.20
52024;DHT22;38038;45.922;13.604;2022-09-03T07:51:35;22.00;94.90
52024;DHT22;38038;45.922;13.604;2022-09-03T07:54:07;22.00;95.10
52024;DHT22;38038;45.922;13.604;2022-09-03T07:56:35;22.10;95.50
52024;DHT22;38038;45.922;13.604;2022-09-03T07:59:01;22.20;94.70
52024;DHT22;38038;45.922;13.604;2022-09-03T08:01:29;22.40;94.00
52024;DHT22;38038;45.922;13.604;2022-09-03T08:03:56;22.50;93.50
52024;DHT22;38038;45.922;13.604;2022-09-03T08:06:26;22.60;93.40
52024;DHT22;38038;45.922;13.604;2022-09-03T08:08:58;22.60;92.90
52024;DHT22;38038;45.922;13.604;2022-09-03T08:11:25;22.70;93.40
52024;DHT22;38038;45.922;13.604;2022-09-03T08:13:58;22.70;93.50
52024;DHT22;38038;45.922;13.604;2022-09-03T08:16:32;22.70;92.60
52024;DHT22;38038;45.922;13.604;2022-09-03T08:18:58;22.80;92.40
52024;DHT22;38038;45.922;13.604;2022-09-03T08:21:25;22.90;92.30
52024;DHT22;38038;45.922;13.604;2022-09-03T08:23:53;22.90;91.90
52024;DHT22;38038;45.922;13.604;2022-09-03T08:26:21;23.00;92.60
52024;DHT22;38038;45.922;13.604;2022-09-03T08:28:47;23.20;92.70
52024;DHT22;38038;45.922;13.604;2022-09-03T08:31:21;23.30;92.30
52024;DHT22;38038;45.922;13.604;2022-09-03T08:33:52;23.30;92.20
52024;DHT22;38038;45.922;13.604;2022-09-03T08:36:20;23.40;92.10
52024;DHT22;38038;45.922;13.604;2022-09-03T08:38:48;23.40;91.80
52024;DHT22;38038;45.922;13.604;2022-09-03T08:44:42;23.40;91.70
52024;DHT22;38038;45.922;13.604;2022-09-03T08:53:20;23.80;91.30
52024;DHT22;38038;45.922;13.604;2022-09-03T08:55:58;23.70;90.80
52024;DHT22;38038;45.922;13.604;2022-09-03T08:58:36;23.60;91.00
52024;DHT22;38038;45.922;13.604;2022-09-03T09:04:29;23.80;90.90
52024;DHT22;38038;45.922;13.604;2022-09-03T09:07:03;23.90;90.10
52024;DHT22;38038;45.922;13.604;2022-09-03T09:15:03;24.10;90.40
52024;DHT22;38038;45.922;13.604;2022-09-03T09:20:51;24.10;88.30
52024;DHT22;38038;45.922;13.604;2022-09-03T09:23:29;24.10;87.50
52024;DHT22;38038;45.922;13.604;2022-09-03T09:25:58;24.30;86.70
52024;DHT22;38038;45.922;13.604;2022-09-03T09:28:33;24.40;85.10
52024;DHT22;38038;45.922;13.604;2022-09-03T09:31:00;24.50;86.10
52024;DHT22;38038;45.922;13.604;2022-09-03T09:33:30;24.70;85.10
52024;DHT22;38038;45.922;13.604;2022-09-03T09:35:58;24.80;85.30
52024;DHT22;38038;45.922;13.604;2022-09-03T09:38:31;25.00;83.80
52024;DHT22;38038;45.922;13.604;2022-09-03T09:41:08;25.10;83.30
52024;DHT22;38038;45.922;13.604;2022-09-03T09:43:34;25.20;83.60
52024;DHT22;38038;45.922;13.604;2022-09-03T09:46:13;25.10;85.30
52024;DHT22;38038;45.922;13.604;2022-09-03T09:48:51;25.20;86.00
52024;DHT22;38038;45.922;13.604;2022-09-03T09:51:25;25.40;87.70
52024;DHT22;38038;45.922;13.604;2022-09-03T09:54:09;25.30;85.60
52024;DHT22;38038;45.922;13.604;2022-09-03T09:56:36;25.30;86.20
52024;DHT22;38038;45.922;13.604;2022-09-03T09:59:07;25.50;84.70
52024;DHT22;38038;45.922;13.604;2022-09-03T10:01:36;25.60;84.10
52024;DHT22;38038;45.922;13.604;2022-09-03T10:06:34;25.70;83.50
52024;DHT22;38038;45.922;13.604;2022-09-03T10:09:20;25.80;83.10
52024;DHT22;38038;45.922;13.604;2022-09-03T10:14:49;25.50;83.10
52024;DHT22;38038;45.922;13.604;2022-09-03T10:17:26;25.40;82.80
52024;DHT22;38038;45.922;13.604;2022-09-03T10:28:27;25.80;83.70
52024;DHT22;38038;45.922;13.604;2022-09-03T10:39:35;26.00;83.70
52024;DHT22;38038;45.922;13.604;2022-09-03T10:47:42;26.40;81.80
52024;DHT22;38038;45.922;13.604;2022-09-03T10:50:14;26.40;81.00
52024;DHT22;38038;45.922;13.604;2022-09-03T10:55:45;26.00;81.50
52024;DHT22;38038;45.922;13.604;2022-09-03T11:06:39;26.20;81.50
52024;DHT22;38038;45.922;13.604;2022-09-03T11:12:00;26.20;82.30
52024;DHT22;38038;45.922;13.604;2022-09-03T11:14:43;26.30;81.60
52024;DHT22;38038;45.922;13.604;2022-09-03T11:17:25;26.30;81.40
52024;DHT22;38038;45.922;13.604;2022-09-03T11:20:17;26.40;81.00
52024;DHT22;38038;45.922;13.604;2022-09-03T11:22:42;26.40;82.30
52024;DHT22;38038;45.922;13.604;2022-09-03T11:25:12;26.50;81.70
52024;DHT22;38038;45.922;13.604;2022-09-03T11:30:13;26.60;80.20
52024;DHT22;38038;45.922;13.604;2022-09-03T11:32:41;26.50;80.80
52024;DHT22;38038;45.922;13.604;2022-09-03T11:35:25;26.50;80.90
52024;DHT22;38038;45.922;13.604;2022-09-03T11:37:58;26.30;80.70
52024;DHT22;38038;45.922;13.604;2022-09-03T11:40:35;26.30;80.60
52024;DHT22;38038;45.922;13.604;2022-09-03T11:48:37;26.50;81.30
52024;DHT22;38038;45.922;13.604;2022-09-03T11:51:03;26.50;81.00
52024;DHT22;38038;45.922;13.604;2022-09-03T11:53:34;26.60;80.80
52024;DHT22;38038;45.922;13.604;2022-09-03T11:56:16;26.70;80.20
52024;DHT22;38038;45.922;13.604;2022-09-03T11:58:42;26.60;79.80
52024;DHT22;38038;45.922;13.604;2022-09-03T12:01:10;26.70;79.90
52024;DHT22;38038;45.922;13.604;2022-09-03T12:03:52;26.70;79.70
52024;DHT22;38038;45.922;13.604;2022-09-03T12:18:05;27.20;80.80
52024;DHT22;38038;45.922;13.604;2022-09-03T12:20:13;27.40;79.30
52024;DHT22;38038;45.922;13.604;2022-09-03T12:22:40;27.40;80.50
52024;DHT22;38038;45.922;13.604;2022-09-03T12:25:13;27.50;78.20
52024;DHT22;38038;45.922;13.604;2022-09-03T12:27:43;27.20;79.50
52024;DHT22;38038;45.922;13.604;2022-09-03T12:30:21;27.40;78.60
52024;DHT22;38038;45.922;13.604;2022-09-03T12:32:48;27.40;78.90
52024;DHT22;38038;45.922;13.604;2022-09-03T12:35:21;27.40;80.40
52024;DHT22;38038;45.922;13.604;2022-09-03T12:37:50;27.50;78.70
52024;DHT22;38038;45.922;13.604;2022-09-03T12:40:21;27.50;78.60
52024;DHT22;38038;45.922;13.604;2022-09-03T12:42:48;27.50;78.70
52024;DHT22;38038;45.922;13.604;2022-09-03T12:45:18;27.60;77.50
52024;DHT22;38038;45.922;13.604;2022-09-03T12:47:45;27.30;78.80
52024;DHT22;38038;45.922;13.604;2022-09-03T12:50:13;27.20;79.40
52024;DHT22;38038;45.922;13.604;2022-09-03T12:52:55;27.10;79.20
52024;DHT22;38038;45.922;13.604;2022-09-03T12:58:46;27.10;78.30
52024;DHT22;38038;45.922;13.604;2022-09-03T13:01:27;27.20;78.20
52024;DHT22;38038;45.922;13.604;2022-09-03T13:04:09;27.10;78.40
52024;DHT22;38038;45.922;13.604;2022-09-03T16:52:01;24.50;87.50
52024;DHT22;38038;45.922;13.604;2022-09-03T17:00:11;24.30;88.00
52024;DHT22;38038;45.922;13.604;2022-09-03T17:05:46;24.00;88.20
52024;DHT22;38038;45.922;13.604;2022-09-03T17:19:38;23.70;89.50
52024;DHT22;38038;45.922;13.604;2022-09-03T17:22:27;23.60;89.80
52024;DHT22;38038;45.922;13.604;2022-09-03T17:24:58;23.50;90.10
52024;DHT22;38038;45.922;13.604;2022-09-03T17:27:55;23.40;90.40
52024;DHT22;38038;45.922;13.604;2022-09-03T17:33:36;23.10;90.40
52024;DHT22;38038;45.922;13.604;2022-09-03T17:36:16;23.10;90.50
52024;DHT22;38038;45.922;13.604;2022-09-03T17:47:02;22.90;91.30
52024;DHT22;38038;45.922;13.604;2022-09-03T17:49:49;22.80;91.80
52024;DHT22;38038;45.922;13.604;2022-09-03T17:55:07;22.70;92.00
52024;DHT22;38038;45.922;13.604;2022-09-03T17:57:46;22.70;92.20
52024;DHT22;38038;45.922;13.604;2022-09-03T18:00:52;22.60;92.50
52024;DHT22;38038;45.922;13.604;2022-09-03T18:06:17;22.60;92.30
52024;DHT22;38038;45.922;13.604;2022-09-03T18:09:11;22.60;92.50
52024;DHT22;38038;45.922;13.604;2022-09-03T18:11:50;22.50;92.70
52024;DHT22;38038;45.922;13.604;2022-09-03T18:16:58;22.50;92.40
52024;DHT22;38038;45.922;13.604;2022-09-03T18:19:29;22.50;92.70
52024;DHT22;38038;45.922;13.604;2022-09-03T18:22:01;22.50;92.70
52024;DHT22;38038;45.922;13.604;2022-09-03T18:24:54;22.50;93.00
52024;DHT22;38038;45.922;13.604;2022-09-03T18:27:43;22.50;92.10
52024;DHT22;38038;45.922;13.604;2022-09-03T18:30:28;22.50;92.20
52024;DHT22;38038;45.922;13.604;2022-09-03T18:33:13;22.50;92.40
52024;DHT22;38038;45.922;13.604;2022-09-03T18:35:59;22.40;92.80
52024;DHT22;38038;45.922;13.604;2022-09-03T18:38:43;22.40;92.20
52024;DHT22;38038;45.922;13.604;2022-09-03T18:44:36;22.30;92.50
52024;DHT22;38038;45.922;13.604;2022-09-03T18:51:04;22.10;92.90
52024;DHT22;38038;45.922;13.604;2022-09-03T18:56:44;21.90;93.50
52024;DHT22;38038;45.922;13.604;2022-09-03T19:05:32;21.80;94.10
52024;DHT22;38038;45.922;13.604;2022-09-03T19:08:22;21.70;94.40
52024;DHT22;38038;45.922;13.604;2022-09-03T19:17:25;21.60;94.80
52024;DHT22;38038;45.922;13.604;2022-09-03T19:20:27;21.60;94.80
52024;DHT22;38038;45.922;13.604;2022-09-03T19:23:12;21.60;94.90
52024;DHT22;38038;45.922;13.604;2022-09-03T19:26:23;21.60;95.20
52024;DHT22;38038;45.922;13.604;2022-09-03T19:29:13;21.60;95.30
52024;DHT22;38038;45.922;13.604;2022-09-03T19:32:08;21.60;95.10
52024;DHT22;38038;45.922;13.604;2022-09-03T19:35:18;21.60;95.00
52024;DHT22;38038;45.922;13.604;2022-09-03T19:38:17;21.70;95.00
52024;DHT22;38038;45.922;13.604;2022-09-03T19:41:23;21.70;95.10
52024;DHT22;38038;45.922;13.604;2022-09-03T19:47:13;21.70;95.00
52024;DHT22;38038;45.922;13.604;2022-09-03T19:53:02;21.90;95.10
52024;DHT22;38038;45.922;13.604;2022-09-03T19:55:52;21.90;95.10
52024;DHT22;38038;45.922;13.604;2022-09-03T19:58:41;22.00;95.10
52024;DHT22;38038;45.922;13.604;2022-09-03T20:01:32;22.00;95.00
52024;DHT22;38038;45.922;13.604;2022-09-03T20:04:18;22.10;95.00
52024;DHT22;38038;45.922;13.604;2022-09-03T20:07:05;22.10;95.00
52024;DHT22;38038;45.922;13.604;2022-09-03T20:09:53;22.10;94.80
52024;DHT22;38038;45.922;13.604;2022-09-03T20:12:44;22.10;95.00
52024;DHT22;38038;45.922;13.604;2022-09-03T20:15:12;22.00;95.00
52024;DHT22;38038;45.922;13.604;2022-09-03T20:17:59;21.90;95.20
52024;DHT22;38038;45.922;13.604;2022-09-03T20:20:43;21.90;95.30
52024;DHT22;38038;45.922;13.604;2022-09-03T20:29:12;21.90;95.20
52024;DHT22;38038;45.922;13.604;2022-09-03T20:32:00;21.90;95.20
52024;DHT22;38038;45.922;13.604;2022-09-03T20:40:13;21.70;95.40
52024;DHT22;38038;45.922;13.604;2022-09-03T20:43:09;21.70;95.50
52024;DHT22;38038;45.922;13.604;2022-09-03T20:46:05;21.60;95.40
52024;DHT22;38038;45.922;13.604;2022-09-03T20:51:35;21.50;96.60
52024;DHT22;38038;45.922;13.604;2022-09-03T20:57:17;21.30;97.20
52024;DHT22;38038;45.922;13.604;2022-09-03T21:00:03;21.20;97.50
52024;DHT22;38038;45.922;13.604;2022-09-03T21:05:28;20.90;97.80
52024;DHT22;38038;45.922;13.604;2022-09-03T21:10:46;20.90;97.90
52024;DHT22;38038;45.922;13.604;2022-09-03T21:13:24;20.90;97.90
52024;DHT22;38038;45.922;13.604;2022-09-03T21:16:23;20.80;98.20
52024;DHT22;38038;45.922;13.604;2022-09-03T21:24:28;20.60;98.80
52024;DHT22;38038;45.922;13.604;2022-09-03T21:27:13;20.60;98.70
52024;DHT22;38038;45.922;13.604;2022-09-03T21:30:04;20.60;98.90
52024;DHT22;38038;45.922;13.604;2022-09-03T21:32:45;20.50;99.30
52024;DHT22;38038;45.922;13.604;2022-09-03T21:38:15;20.50;99.30
52024;DHT22;38038;45.922;13.604;2022-09-03T21:40:53;20.50;99.60
52024;DHT22;38038;45.922;13.604;2022-09-03T21:46:53;20.40;99.40
52024;DHT22;38038;45.922;13.604;2022-09-03T21:49:26;20.40;99.90
52024;DHT22;38038;45.922;13.604;2022-09-03T21:52:01;20.30;99.90
52024;DHT22;38038;45.922;13.604;2022-09-03T21:54:30;20.30;99.90
52024;DHT22;38038;45.922;13.604;2022-09-03T22:00:08;20.40;99.70
52024;DHT22;38038;45.922;13.604;2022-09-03T22:02:34;20.30;99.90
52024;DHT22;38038;45.922;13.604;2022-09-03T22:05:01;20.30;99.90
52024;DHT22;38038;45.922;13.604;2022-09-03T22:10:43;20.40;99.90
52024;DHT22;38038;45.922;13.604;2022-09-03T22:16:25;20.30;99.90
52024;DHT22;38038;45.922;13.604;2022-09-03T22:18:55;20.30;99.90
52024;DHT22;38038;45.922;13.604;2022-09-03T22:21:54;20.40;99.90
52024;DHT22;38038;45.922;13.604;2022-09-03T22:24:36;20.30;99.90
52024;DHT22;38038;45.922;13.604;2022-09-03T22:51:09;20.30;99.90
52024;DHT22;38038;45.922;13.604;2022-09-03T22:56:14;20.00;99.90
52024;DHT22;38038;45.922;13.604;2022-09-03T23:01:35;19.80;99.90
52024;DHT22;38038;45.922;13.604;2022-09-03T23:04:27;19.70;99.90
52024;DHT22;38038;45.922;13.604;2022-09-03T23:07:05;19.50;99.90
52024;DHT22;38038;45.922;13.604;2022-09-03T23:09:38;19.40;99.90
52024;DHT22;38038;45.922;13.604;2022-09-03T23:12:49;19.30;99.90
52024;DHT22;38038;45.922;13.604;2022-09-03T23:15:22;19.40;99.90
52024;DHT22;38038;45.922;13.604;2022-09-03T23:18:07;19.40;99.90
52024;DHT22;38038;45.922;13.604;2022-09-03T23:20:37;19.30;99.90
52024;DHT22;38038;45.922;13.604;2022-09-03T23:23:28;19.30;99.90
52024;DHT22;38038;45.922;13.604;2022-09-03T23:26:12;19.40;99.90
52024;DHT22;38038;45.922;13.604;2022-09-03T23:28:47;19.40;99.90
52024;DHT22;38038;45.922;13.604;2022-09-03T23:31:19;19.50;99.90
52024;DHT22;38038;45.922;13.604;2022-09-03T23:33:46;19.50;99.90
52024;DHT22;38038;45.922;13.604;2022-09-03T23:36:26;19.50;99.90
52024;DHT22;38038;45.922;13.604;2022-09-03T23:42:22;19.50;99.90
52024;DHT22;38038;45.922;13.604;2022-09-03T23:58:08;19.50;99.90
